Terminal Aerodrome Forecast
Issued by NWS

Current Version | Previous Version | Text Only | Print | Product List | Glossary On
Versions: 1 2 3 4 5 6 7 8 9 10 11 12 13 14 15 16 17 18 19 20 21 22 23 24 25
000
FTPA31 PHFO 271700
TAFOGG
TAF
PHOG 271728Z 2718/2818 VRB05KT P6SM FEW040
     FM272000 33010KT P6SM SCT030 BKN050
     FM272200 35013KT P6SM FEW050
     FM280600 02008KT P6SM FEW040
      AMD LTD TO WX VIS AND WIND 2809/2816=

USA.gov is the U.S. government's official web portal to all federal, state and local government web resources and services.